sensor_id;sensor_type;location;lat;lon;timestamp;pressure;altitude;pressure_sealevel;temperature;humidity
65614;BME280;52283;49.292;10.572;2023-05-24T00:00:45;96802.09;;;10.51;100.00
65614;BME280;52283;49.292;10.572;2023-05-24T00:03:12;96791.75;;;10.31;100.00
65614;BME280;52283;49.292;10.572;2023-05-24T00:05:40;96787.19;;;10.34;100.00
65614;BME280;52283;49.292;10.572;2023-05-24T00:08:07;96780.19;;;10.44;100.00
65614;BME280;52283;49.292;10.572;2023-05-24T00:10:34;96788.78;;;10.20;100.00
65614;BME280;52283;49.292;10.572;2023-05-24T00:13:01;96782.09;;;10.06;100.00
65614;BME280;52283;49.292;10.572;2023-05-24T00:15:28;96783.63;;;10.07;100.00
65614;BME280;52283;49.292;10.572;2023-05-24T00:17:54;96780.00;;;10.01;100.00
65614;BME280;52283;49.292;10.572;2023-05-24T00:20:21;96780.78;;;10.02;100.00
65614;BME280;52283;49.292;10.572;2023-05-24T00:22:47;96776.63;;;9.97;100.00
65614;BME280;52283;49.292;10.572;2023-05-24T00:25:14;96764.44;;;9.95;100.00
65614;BME280;52283;49.292;10.572;2023-05-24T00:27:40;96765.38;;;9.86;100.00
65614;BME280;52283;49.292;10.572;2023-05-24T00:30:09;96772.03;;;9.68;100.00
65614;BME280;52283;49.292;10.572;2023-05-24T00:32:35;96765.88;;;9.64;100.00
65614;BME280;52283;49.292;10.572;2023-05-24T00:35:02;96765.59;;;9.83;100.00
65614;BME280;52283;49.292;10.572;2023-05-24T00:37:28;96760.13;;;9.94;100.00
65614;BME280;52283;49.292;10.572;2023-05-24T00:39:55;96761.63;;;9.69;100.00
65614;BME280;52283;49.292;10.572;2023-05-24T00:42:21;96761.06;;;9.65;100.00
65614;BME280;52283;49.292;10.572;2023-05-24T00:44:48;96759.41;;;9.53;100.00
65614;BME280;52283;49.292;10.572;2023-05-24T00:47:16;96755.50;;;9.44;100.00
65614;BME280;52283;49.292;10.572;2023-05-24T00:49:42;96762.19;;;9.53;100.00
65614;BME280;52283;49.292;10.572;2023-05-24T00:52:09;96759.50;;;9.38;100.00
65614;BME280;52283;49.292;10.572;2023-05-24T00:54:35;96757.94;;;9.57;100.00
65614;BME280;52283;49.292;10.572;2023-05-24T00:57:02;96758.03;;;9.42;100.00
65614;BME280;52283;49.292;10.572;2023-05-24T00:59:29;96753.28;;;9.48;100.00
65614;BME280;52283;49.292;10.572;2023-05-24T01:01:56;96748.38;;;9.64;100.00
65614;BME280;52283;49.292;10.572;2023-05-24T01:04:24;96752.28;;;9.72;100.00
65614;BME280;52283;49.292;10.572;2023-05-24T01:07:02;96756.97;;;9.60;100.00
65614;BME280;52283;49.292;10.572;2023-05-24T01:09:33;96752.22;;;9.66;100.00
65614;BME280;52283;49.292;10.572;2023-05-24T01:12:19;96750.31;;;9.58;100.00
65614;BME280;52283;49.292;10.572;2023-05-24T01:14:56;96752.84;;;9.35;100.00
65614;BME280;52283;49.292;10.572;2023-05-24T01:17:29;96742.19;;;9.34;100.00
65614;BME280;52283;49.292;10.572;2023-05-24T01:20:01;96746.50;;;9.35;100.00
65614;BME280;52283;49.292;10.572;2023-05-24T01:23:02;96740.91;;;9.35;100.00
65614;BME280;52283;49.292;10.572;2023-05-24T01:25:47;96749.00;;;9.33;100.00
65614;BME280;52283;49.292;10.572;2023-05-24T01:28:17;96753.75;;;9.47;100.00
65614;BME280;52283;49.292;10.572;2023-05-24T01:30:44;96744.88;;;9.69;100.00
65614;BME280;52283;49.292;10.572;2023-05-24T01:33:11;96750.31;;;9.58;100.00
65614;BME280;52283;49.292;10.572;2023-05-24T01:35:38;96737.22;;;9.64;100.00
65614;BME280;52283;49.292;10.572;2023-05-24T01:38:06;96742.00;;;9.37;100.00
65614;BME280;52283;49.292;10.572;2023-05-24T01:40:34;96743.38;;;9.07;100.00
65614;BME280;52283;49.292;10.572;2023-05-24T01:43:03;96745.31;;;9.01;100.00
65614;BME280;52283;49.292;10.572;2023-05-24T01:45:37;96741.31;;;8.87;100.00
65614;BME280;52283;49.292;10.572;2023-05-24T01:48:09;96749.31;;;8.79;100.00
65614;BME280;52283;49.292;10.572;2023-05-24T01:50:45;96745.91;;;8.90;100.00
65614;BME280;52283;49.292;10.572;2023-05-24T01:53:15;96733.03;;;8.93;100.00
65614;BME280;52283;49.292;10.572;2023-05-24T01:55:43;96739.31;;;9.08;100.00
65614;BME280;52283;49.292;10.572;2023-05-24T01:58:15;96742.44;;;8.95;100.00
65614;BME280;52283;49.292;10.572;2023-05-24T02:00:44;96737.75;;;8.86;100.00
65614;BME280;52283;49.292;10.572;2023-05-24T02:03:12;96738.16;;;8.79;100.00
65614;BME280;52283;49.292;10.572;2023-05-24T02:05:39;96741.25;;;8.81;100.00
65614;BME280;52283;49.292;10.572;2023-05-24T02:08:05;96747.56;;;9.17;100.00
65614;BME280;52283;49.292;10.572;2023-05-24T02:10:33;96743.22;;;9.16;100.00
65614;BME280;52283;49.292;10.572;2023-05-24T02:13:02;96749.84;;;8.98;100.00
65614;BME280;52283;49.292;10.572;2023-05-24T02:15:29;96747.72;;;8.93;100.00
65614;BME280;52283;49.292;10.572;2023-05-24T02:17:57;96751.44;;;9.05;100.00
65614;BME280;52283;49.292;10.572;2023-05-24T02:20:25;96744.47;;;9.35;100.00
65614;BME280;52283;49.292;10.572;2023-05-24T02:22:55;96747.84;;;9.39;100.00
65614;BME280;52283;49.292;10.572;2023-05-24T02:25:21;96746.97;;;9.54;100.00
65614;BME280;52283;49.292;10.572;2023-05-24T02:27:48;96741.31;;;9.68;100.00
65614;BME280;52283;49.292;10.572;2023-05-24T02:30:14;96746.91;;;9.68;100.00
65614;BME280;52283;49.292;10.572;2023-05-24T02:32:41;96733.56;;;9.78;100.00
65614;BME280;52283;49.292;10.572;2023-05-24T02:35:09;96735.13;;;9.79;100.00
65614;BME280;52283;49.292;10.572;2023-05-24T02:37:35;96735.56;;;9.77;100.00
65614;BME280;52283;49.292;10.572;2023-05-24T02:40:02;96743.00;;;9.81;100.00
65614;BME280;52283;49.292;10.572;2023-05-24T02:42:29;96740.34;;;9.71;100.00
65614;BME280;52283;49.292;10.572;2023-05-24T02:44:56;96738.38;;;9.77;100.00
65614;BME280;52283;49.292;10.572;2023-05-24T02:47:22;96737.72;;;9.88;100.00
65614;BME280;52283;49.292;10.572;2023-05-24T02:49:50;96740.47;;;9.83;100.00
65614;BME280;52283;49.292;10.572;2023-05-24T02:52:18;96743.41;;;9.73;100.00
65614;BME280;52283;49.292;10.572;2023-05-24T02:54:47;96744.44;;;9.76;100.00
65614;BME280;52283;49.292;10.572;2023-05-24T02:57:13;96746.56;;;9.61;100.00
65614;BME280;52283;49.292;10.572;2023-05-24T02:59:40;96755.06;;;9.72;100.00
65614;BME280;52283;49.292;10.572;2023-05-24T03:02:07;96749.38;;;9.61;100.00
65614;BME280;52283;49.292;10.572;2023-05-24T03:04:33;96740.75;;;9.85;100.00
65614;BME280;52283;49.292;10.572;2023-05-24T03:07:00;96753.16;;;9.84;100.00
65614;BME280;52283;49.292;10.572;2023-05-24T03:09:28;96757.28;;;9.88;100.00
65614;BME280;52283;49.292;10.572;2023-05-24T03:11:55;96755.16;;;10.03;100.00
65614;BME280;52283;49.292;10.572;2023-05-24T03:14:21;96749.16;;;10.16;100.00
65614;BME280;52283;49.292;10.572;2023-05-24T03:16:49;96755.94;;;10.30;100.00
65614;BME280;52283;49.292;10.572;2023-05-24T03:19:15;96758.69;;;10.24;100.00
65614;BME280;52283;49.292;10.572;2023-05-24T03:21:42;96754.97;;;10.13;100.00
65614;BME280;52283;49.292;10.572;2023-05-24T03:24:09;96761.72;;;10.00;100.00
65614;BME280;52283;49.292;10.572;2023-05-24T03:26:38;96770.94;;;9.86;100.00
65614;BME280;52283;49.292;10.572;2023-05-24T03:29:05;96759.13;;;9.97;100.00
65614;BME280;52283;49.292;10.572;2023-05-24T03:31:31;96756.59;;;9.99;100.00
65614;BME280;52283;49.292;10.572;2023-05-24T03:33:58;96749.97;;;9.96;100.00
65614;BME280;52283;49.292;10.572;2023-05-24T03:36:24;96767.66;;;9.88;100.00
65614;BME280;52283;49.292;10.572;2023-05-24T03:38:53;96761.72;;;10.00;100.00
65614;BME280;52283;49.292;10.572;2023-05-24T03:41:22;96746.81;;;10.09;100.00
65614;BME280;52283;49.292;10.572;2023-05-24T03:43:50;96763.84;;;9.85;100.00
65614;BME280;52283;49.292;10.572;2023-05-24T03:46:18;96753.94;;;9.84;100.00
65614;BME280;52283;49.292;10.572;2023-05-24T03:48:45;96762.69;;;9.97;100.00
65614;BME280;52283;49.292;10.572;2023-05-24T03:51:11;96763.44;;;9.98;100.00
65614;BME280;52283;49.292;10.572;2023-05-24T03:53:38;96771.31;;;9.99;100.00
65614;BME280;52283;49.292;10.572;2023-05-24T03:56:05;96771.03;;;9.71;100.00
65614;BME280;52283;49.292;10.572;2023-05-24T03:58:31;96779.94;;;9.96;100.00
65614;BME280;52283;49.292;10.572;2023-05-24T04:00:59;96768.38;;;10.08;100.00
65614;BME280;52283;49.292;10.572;2023-05-24T04:03:26;96773.97;;;10.08;100.00
65614;BME280;52283;49.292;10.572;2023-05-24T04:05:52;96766.59;;;10.05;100.00
65614;BME280;52283;49.292;10.572;2023-05-24T04:08:19;96770.13;;;10.26;100.00
65614;BME280;52283;49.292;10.572;2023-05-24T04:10:45;96772.59;;;9.98;100.00
65614;BME280;52283;49.292;10.572;2023-05-24T04:13:12;96780.03;;;9.81;100.00
65614;BME280;52283;49.292;10.572;2023-05-24T04:15:38;96770.94;;;9.86;100.00
65614;BME280;52283;49.292;10.572;2023-05-24T04:18:07;96772.72;;;9.84;100.00
65614;BME280;52283;49.292;10.572;2023-05-24T04:20:34;96772.88;;;10.00;100.00
65614;BME280;52283;49.292;10.572;2023-05-24T04:23:00;96777.72;;;10.00;100.00
65614;BME280;52283;49.292;10.572;2023-05-24T04:25:27;96771.13;;;10.03;100.00
65614;BME280;52283;49.292;10.572;2023-05-24T04:27:54;96768.25;;;9.97;100.00
65614;BME280;52283;49.292;10.572;2023-05-24T04:30:21;96771.41;;;10.05;100.00
65614;BME280;52283;49.292;10.572;2023-05-24T04:32:47;96764.78;;;10.02;100.00
65614;BME280;52283;49.292;10.572;2023-05-24T04:35:16;96768.88;;;10.07;100.00
65614;BME280;52283;49.292;10.572;2023-05-24T04:37:42;96765.09;;;9.84;100.00
65614;BME280;52283;49.292;10.572;2023-05-24T04:40:10;96765.81;;;10.05;100.00
65614;BME280;52283;49.292;10.572;2023-05-24T04:42:37;96767.41;;;9.86;100.00
65614;BME280;52283;49.292;10.572;2023-05-24T04:45:04;96765.19;;;9.95;100.00
65614;BME280;52283;49.292;10.572;2023-05-24T04:47:31;96759.06;;;9.65;100.00
65614;BME280;52283;49.292;10.572;2023-05-24T04:49:57;96764.25;;;9.78;100.00
65614;BME280;52283;49.292;10.572;2023-05-24T04:52:25;96763.84;;;9.85;100.00
65614;BME280;52283;49.292;10.572;2023-05-24T04:54:51;96757.72;;;9.81;100.00
65614;BME280;52283;49.292;10.572;2023-05-24T04:57:19;96764.47;;;9.74;100.00
65614;BME280;52283;49.292;10.572;2023-05-24T04:59:46;96768.66;;;9.85;100.00
65614;BME280;52283;49.292;10.572;2023-05-24T05:02:13;96772.94;;;10.06;100.00
65614;BME280;52283;49.292;10.572;2023-05-24T05:04:39;96774.28;;;10.16;100.00
65614;BME280;52283;49.292;10.572;2023-05-24T05:07:06;96765.75;;;9.99;100.00
65614;BME280;52283;49.292;10.572;2023-05-24T05:09:34;96769.19;;;9.89;100.00
65614;BME280;52283;49.292;10.572;2023-05-24T05:12:00;96771.06;;;9.97;100.00
65614;BME280;52283;49.292;10.572;2023-05-24T05:14:27;96768.88;;;10.07;100.00
65614;BME280;52283;49.292;10.572;2023-05-24T05:16:53;96775.28;;;10.13;100.00
65614;BME280;52283;49.292;10.572;2023-05-24T05:19:20;96767.91;;;10.10;100.00
65614;BME280;52283;49.292;10.572;2023-05-24T05:21:46;96774.63;;;9.98;100.00
65614;BME280;52283;49.292;10.572;2023-05-24T05:24:14;96778.56;;;10.12;100.00
65614;BME280;52283;49.292;10.572;2023-05-24T05:26:41;96762.13;;;10.19;100.00
65614;BME280;52283;49.292;10.572;2023-05-24T05:29:08;96773.25;;;10.14;100.00
65614;BME280;52283;49.292;10.572;2023-05-24T05:31:34;96771.66;;;10.27;100.00
65614;BME280;52283;49.292;10.572;2023-05-24T05:34:01;96772.16;;;10.26;100.00
65614;BME280;52283;49.292;10.572;2023-05-24T05:36:27;96765.69;;;10.20;100.00
65614;BME280;52283;49.292;10.572;2023-05-24T05:38:54;96781.78;;;10.25;100.00
65614;BME280;52283;49.292;10.572;2023-05-24T05:41:20;96780.09;;;10.13;100.00
65614;BME280;52283;49.292;10.572;2023-05-24T05:43:48;96779.06;;;10.10;100.00
65614;BME280;52283;49.292;10.572;2023-05-24T05:46:15;96770.91;;;10.06;100.00
65614;BME280;52283;49.292;10.572;2023-05-24T05:48:43;96767.78;;;9.99;100.00
65614;BME280;52283;49.292;10.572;2023-05-24T05:51:10;96763.03;;;10.05;100.00
65614;BME280;52283;49.292;10.572;2023-05-24T05:53:37;96773.16;;;10.02;100.00
65614;BME280;52283;49.292;10.572;2023-05-24T05:56:04;96771.44;;;10.11;100.00
65614;BME280;52283;49.292;10.572;2023-05-24T05:58:30;96772.53;;;10.19;100.00
65614;BME280;52283;49.292;10.572;2023-05-24T06:00:58;96775.97;;;10.28;100.00
65614;BME280;52283;49.292;10.572;2023-05-24T06:03:24;96782.38;;;10.34;100.00
65614;BME280;52283;49.292;10.572;2023-05-24T06:05:51;96780.78;;;10.28;100.00
65614;BME280;52283;49.292;10.572;2023-05-24T06:08:17;96783.44;;;10.17;100.00
65614;BME280;52283;49.292;10.572;2023-05-24T06:10:44;96796.03;;;10.06;100.00
65614;BME280;52283;49.292;10.572;2023-05-24T06:13:10;96794.34;;;10.15;100.00
65614;BME280;52283;49.292;10.572;2023-05-24T06:15:37;96792.78;;;10.34;100.00
65614;BME280;52283;49.292;10.572;2023-05-24T06:18:05;96789.88;;;10.49;100.00
65614;BME280;52283;49.292;10.572;2023-05-24T06:20:32;96790.81;;;10.20;100.00
65614;BME280;52283;49.292;10.572;2023-05-24T06:22:58;96796.38;;;10.40;100.00
65614;BME280;52283;49.292;10.572;2023-05-24T06:25:25;96793.38;;;10.44;100.00
65614;BME280;52283;49.292;10.572;2023-05-24T06:27:53;96785.22;;;10.40;100.00
65614;BME280;52283;49.292;10.572;2023-05-24T06:30:20;96798.56;;;10.04;100.00
65614;BME280;52283;49.292;10.572;2023-05-24T06:32:46;96799.88;;;10.09;100.00
65614;BME280;52283;49.292;10.572;2023-05-24T06:35:14;96804.19;;;10.10;100.00
65614;BME280;52283;49.292;10.572;2023-05-24T06:37:41;96806.97;;;10.30;100.00
65614;BME280;52283;49.292;10.572;2023-05-24T06:40:08;96813.06;;;10.29;100.00
65614;BME280;52283;49.292;10.572;2023-05-24T06:42:34;96812.91;;;10.18;100.00
65614;BME280;52283;49.292;10.572;2023-05-24T06:45:01;96819.50;;;10.41;100.00
65614;BME280;52283;49.292;10.572;2023-05-24T06:47:28;96816.16;;;9.90;100.00
65614;BME280;52283;49.292;10.572;2023-05-24T06:49:54;96824.72;;;10.27;100.00
65614;BME280;52283;49.292;10.572;2023-05-24T06:52:22;96823.25;;;10.32;100.00
65614;BME280;52283;49.292;10.572;2023-05-24T06:54:49;96821.25;;;9.92;100.00
65614;BME280;52283;49.292;10.572;2023-05-24T06:57:16;96826.16;;;9.76;100.00
65614;BME280;52283;49.292;10.572;2023-05-24T06:59:42;96831.16;;;10.39;100.00
65614;BME280;52283;49.292;10.572;2023-05-24T07:02:09;96831.13;;;10.33;100.00
65614;BME280;52283;49.292;10.572;2023-05-24T07:04:35;96828.75;;;10.52;100.00
65614;BME280;52283;49.292;10.572;2023-05-24T07:07:05;96829.75;;;10.23;100.00
65614;BME280;52283;49.292;10.572;2023-05-24T07:09:33;96841.09;;;10.40;100.00
65614;BME280;52283;49.292;10.572;2023-05-24T07:11:59;96839.19;;;10.26;100.00
65614;BME280;52283;49.292;10.572;2023-05-24T07:14:26;96835.13;;;10.27;100.00
65614;BME280;52283;49.292;10.572;2023-05-24T07:16:53;96836.72;;;10.13;100.00
65614;BME280;52283;49.292;10.572;2023-05-24T07:19:21;96837.25;;;10.17;100.00
65614;BME280;52283;49.292;10.572;2023-05-24T07:21:51;96840.28;;;10.14;100.00
65614;BME280;52283;49.292;10.572;2023-05-24T07:24:18;96838.75;;;10.13;100.00
65614;BME280;52283;49.292;10.572;2023-05-24T07:26:47;96842.09;;;10.17;100.00
65614;BME280;52283;49.292;10.572;2023-05-24T07:29:14;96840.72;;;10.27;100.00
65614;BME280;52283;49.292;10.572;2023-05-24T07:31:40;96847.00;;;10.48;100.00
65614;BME280;52283;49.292;10.572;2023-05-24T07:34:07;96843.19;;;10.45;100.00
65614;BME280;52283;49.292;10.572;2023-05-24T07:36:33;96836.16;;;10.55;100.00
65614;BME280;52283;49.292;10.572;2023-05-24T07:39:01;96839.34;;;10.68;100.00
65614;BME280;52283;49.292;10.572;2023-05-24T07:41:29;96834.97;;;10.62;100.00
65614;BME280;52283;49.292;10.572;2023-05-24T07:43:58;96838.22;;;10.60;100.00
65614;BME280;52283;49.292;10.572;2023-05-24T07:46:25;96841.84;;;10.41;100.00
65614;BME280;52283;49.292;10.572;2023-05-24T07:48:51;96839.44;;;10.28;100.00
65614;BME280;52283;49.292;10.572;2023-05-24T07:51:18;96851.88;;;10.27;100.00
65614;BME280;52283;49.292;10.572;2023-05-24T07:53:45;96838.41;;;10.25;100.00
65614;BME280;52283;49.292;10.572;2023-05-24T07:56:12;96843.28;;;10.30;100.00
65614;BME280;52283;49.292;10.572;2023-05-24T07:58:38;96842.56;;;10.15;100.00
65614;BME280;52283;49.292;10.572;2023-05-24T08:01:07;96847.63;;;10.11;100.00
65614;BME280;52283;49.292;10.572;2023-05-24T08:03:33;96838.69;;;10.07;100.00
65614;BME280;52283;49.292;10.572;2023-05-24T08:06:00;96844.41;;;9.98;100.00
65614;BME280;52283;49.292;10.572;2023-05-24T08:08:28;96857.47;;;10.27;100.00
65614;BME280;52283;49.292;10.572;2023-05-24T08:10:54;96858.03;;;10.11;100.00
65614;BME280;52283;49.292;10.572;2023-05-24T08:13:21;96854.31;;;9.78;100.00
65614;BME280;52283;49.292;10.572;2023-05-24T08:15:47;96855.09;;;9.99;100.00
65614;BME280;52283;49.292;10.572;2023-05-24T08:18:16;96860.88;;;9.75;100.00
65614;BME280;52283;49.292;10.572;2023-05-24T08:20:43;96855.31;;;9.96;100.00
65614;BME280;52283;49.292;10.572;2023-05-24T08:23:09;96861.75;;;10.02;100.00
65614;BME280;52283;49.292;10.572;2023-05-24T08:25:35;96862.22;;;10.00;100.00
65614;BME280;52283;49.292;10.572;2023-05-24T08:28:02;96860.53;;;10.08;100.00
65614;BME280;52283;49.292;10.572;2023-05-24T08:30:28;96869.03;;;9.99;100.00
65614;BME280;52283;49.292;10.572;2023-05-24T08:32:56;96868.59;;;10.01;100.00
65614;BME280;52283;49.292;10.572;2023-05-24T08:35:24;96865.91;;;9.92;100.00
65614;BME280;52283;49.292;10.572;2023-05-24T08:37:51;96877.50;;;9.85;100.00
65614;BME280;52283;49.292;10.572;2023-05-24T08:40:17;96879.31;;;9.88;100.00
65614;BME280;52283;49.292;10.572;2023-05-24T08:42:44;96866.69;;;9.92;100.00
65614;BME280;52283;49.292;10.572;2023-05-24T08:45:12;96867.81;;;10.21;100.00
65614;BME280;52283;49.292;10.572;2023-05-24T08:47:39;96870.66;;;10.06;100.00
65614;BME280;52283;49.292;10.572;2023-05-24T08:50:07;96876.03;;;10.30;100.00
65614;BME280;52283;49.292;10.572;2023-05-24T08:52:35;96865.63;;;10.30;100.00
65614;BME280;52283;49.292;10.572;2023-05-24T08:55:03;96865.63;;;10.30;100.00
65614;BME280;52283;49.292;10.572;2023-05-24T08:57:31;96873.25;;;10.56;100.00
65614;BME280;52283;49.292;10.572;2023-05-24T08:59:58;96867.59;;;10.24;99.62
65614;BME280;52283;49.292;10.572;2023-05-24T09:02:25;96871.66;;;10.49;98.76
65614;BME280;52283;49.292;10.572;2023-05-24T09:04:53;96868.81;;;10.44;98.41
65614;BME280;52283;49.292;10.572;2023-05-24T09:07:21;96872.16;;;10.74;98.39
65614;BME280;52283;49.292;10.572;2023-05-24T09:09:56;96878.84;;;10.56;97.24
65614;BME280;52283;49.292;10.572;2023-05-24T09:12:23;96879.09;;;10.58;95.90
65614;BME280;52283;49.292;10.572;2023-05-24T09:14:51;96876.38;;;10.63;95.93
65614;BME280;52283;49.292;10.572;2023-05-24T09:17:19;96881.69;;;10.61;95.62
65614;BME280;52283;49.292;10.572;2023-05-24T09:19:46;96876.75;;;10.51;96.52
65614;BME280;52283;49.292;10.572;2023-05-24T09:22:14;96880.53;;;10.74;97.00
65614;BME280;52283;49.292;10.572;2023-05-24T09:24:46;96868.63;;;11.05;94.38
65614;BME280;52283;49.292;10.572;2023-05-24T09:27:15;96875.41;;;11.29;92.68
65614;BME280;52283;49.292;10.572;2023-05-24T09:29:42;96869.47;;;11.22;91.50
65614;BME280;52283;49.292;10.572;2023-05-24T09:32:11;96869.66;;;11.07;91.45
65614;BME280;52283;49.292;10.572;2023-05-24T09:34:39;96872.00;;;10.83;93.67
65614;BME280;52283;49.292;10.572;2023-05-24T09:37:09;96882.19;;;10.86;93.79
65614;BME280;52283;49.292;10.572;2023-05-24T09:39:38;96881.78;;;10.73;93.04
65614;BME280;52283;49.292;10.572;2023-05-24T09:42:06;96879.88;;;10.12;92.86
65614;BME280;52283;49.292;10.572;2023-05-24T09:44:34;96884.59;;;10.47;94.25
65614;BME280;52283;49.292;10.572;2023-05-24T09:47:01;96888.47;;;10.55;94.83
65614;BME280;52283;49.292;10.572;2023-05-24T09:49:30;96881.16;;;10.83;91.00
65614;BME280;52283;49.292;10.572;2023-05-24T09:51:56;96873.88;;;10.97;91.12
65614;BME280;52283;49.292;10.572;2023-05-24T09:54:23;96873.63;;;11.00;92.92
65614;BME280;52283;49.292;10.572;2023-05-24T09:56:51;96882.34;;;10.51;95.38
65614;BME280;52283;49.292;10.572;2023-05-24T09:59:18;96876.78;;;10.82;95.87
65614;BME280;52283;49.292;10.572;2023-05-24T10:01:46;96876.00;;;11.08;92.93
65614;BME280;52283;49.292;10.572;2023-05-24T10:04:18;96870.94;;;11.12;90.59
65614;BME280;52283;49.292;10.572;2023-05-24T10:06:45;96873.13;;;11.02;92.38
65614;BME280;52283;49.292;10.572;2023-05-24T10:09:13;96871.88;;;11.35;91.34
65614;BME280;52283;49.292;10.572;2023-05-24T10:11:40;96866.97;;;10.92;92.10
65614;BME280;52283;49.292;10.572;2023-05-24T10:14:08;96871.75;;;11.18;89.46
65614;BME280;52283;49.292;10.572;2023-05-24T10:16:35;96876.44;;;11.00;90.07
65614;BME280;52283;49.292;10.572;2023-05-24T10:19:03;96859.78;;;11.54;89.74
65614;BME280;52283;49.292;10.572;2023-05-24T10:21:46;96861.03;;;11.53;87.15
65614;BME280;52283;49.292;10.572;2023-05-24T10:24:18;96863.34;;;11.55;87.14
65614;BME280;52283;49.292;10.572;2023-05-24T10:26:48;96865.09;;;11.47;84.61
65614;BME280;52283;49.292;10.572;2023-05-24T10:29:20;96867.16;;;11.57;82.95
65614;BME280;52283;49.292;10.572;2023-05-24T10:31:52;96858.66;;;11.83;81.76
65614;BME280;52283;49.292;10.572;2023-05-24T10:34:20;96843.66;;;11.81;80.70
65614;BME280;52283;49.292;10.572;2023-05-24T10:36:47;96855.44;;;11.96;81.54
65614;BME280;52283;49.292;10.572;2023-05-24T10:39:14;96841.75;;;12.26;79.10
65614;BME280;52283;49.292;10.572;2023-05-24T10:41:41;96831.50;;;12.06;77.60
65614;BME280;52283;49.292;10.572;2023-05-24T10:44:11;96839.16;;;12.06;79.06
65614;BME280;52283;49.292;10.572;2023-05-24T10:49:48;96824.00;;;12.63;80.52
65614;BME280;52283;49.292;10.572;2023-05-24T10:52:17;96825.75;;;12.49;77.39
65614;BME280;52283;49.292;10.572;2023-05-24T10:55:05;96826.72;;;12.18;76.20
65614;BME280;52283;49.292;10.572;2023-05-24T10:57:33;96834.16;;;12.32;77.31
65614;BME280;52283;49.292;10.572;2023-05-24T11:00:25;96829.78;;;12.20;75.65
65614;BME280;52283;49.292;10.572;2023-05-24T11:02:58;96836.72;;;12.36;77.90
65614;BME280;52283;49.292;10.572;2023-05-24T11:05:33;96839.19;;;11.63;77.02
65614;BME280;52283;49.292;10.572;2023-05-24T11:07:59;96840.47;;;12.16;82.22
65614;BME280;52283;49.292;10.572;2023-05-24T11:10:29;96822.47;;;12.90;75.13
65614;BME280;52283;49.292;10.572;2023-05-24T11:12:59;96821.63;;;12.28;74.00
65614;BME280;52283;49.292;10.572;2023-05-24T11:15:26;96835.13;;;12.12;77.39
65614;BME280;52283;49.292;10.572;2023-05-24T11:18:14;96826.94;;;12.03;77.69
65614;BME280;52283;49.292;10.572;2023-05-24T11:20:43;96796.38;;;13.51;67.99
65614;BME280;52283;49.292;10.572;2023-05-24T11:23:11;96808.16;;;13.43;70.86
65614;BME280;52283;49.292;10.572;2023-05-24T11:25:37;96801.81;;;13.15;70.27
65614;BME280;52283;49.292;10.572;2023-05-24T11:28:06;96788.47;;;13.55;65.91
65614;BME280;52283;49.292;10.572;2023-05-24T11:30:38;96775.66;;;14.64;61.26
65614;BME280;52283;49.292;10.572;2023-05-24T11:33:04;96769.69;;;13.91;60.84
65614;BME280;52283;49.292;10.572;2023-05-24T11:35:31;96769.53;;;14.19;62.55
65614;BME280;52283;49.292;10.572;2023-05-24T11:37:58;96765.06;;;13.93;62.08
65614;BME280;52283;49.292;10.572;2023-05-24T11:40:25;96772.97;;;13.26;63.22
65614;BME280;52283;49.292;10.572;2023-05-24T11:42:52;96766.41;;;15.72;58.28
65614;BME280;52283;49.292;10.572;2023-05-24T11:45:18;96742.31;;;16.46;51.80
65614;BME280;52283;49.292;10.572;2023-05-24T11:47:47;96741.03;;;16.80;53.74
65614;BME280;52283;49.292;10.572;2023-05-24T11:50:14;96750.69;;;14.08;55.18
65614;BME280;52283;49.292;10.572;2023-05-24T11:52:41;96764.84;;;14.32;58.96
65614;BME280;52283;49.292;10.572;2023-05-24T11:55:11;96761.09;;;13.66;57.84
65614;BME280;52283;49.292;10.572;2023-05-24T11:57:46;96738.44;;;14.77;52.53
65614;BME280;52283;49.292;10.572;2023-05-24T12:00:23;96730.50;;;14.81;48.88
65614;BME280;52283;49.292;10.572;2023-05-24T12:02:49;96733.25;;;15.60;49.04
65614;BME280;52283;49.292;10.572;2023-05-24T12:05:17;96724.63;;;15.52;47.19
65614;BME280;52283;49.292;10.572;2023-05-24T12:07:44;96735.09;;;15.33;49.35
65614;BME280;52283;49.292;10.572;2023-05-24T12:10:14;96735.88;;;16.14;50.99
65614;BME280;52283;49.292;10.572;2023-05-24T12:12:42;96711.19;;;16.01;46.15
65614;BME280;52283;49.292;10.572;2023-05-24T12:15:09;96703.88;;;17.34;44.82
65614;BME280;52283;49.292;10.572;2023-05-24T12:17:36;96713.75;;;17.14;44.95
65614;BME280;52283;49.292;10.572;2023-05-24T12:20:04;96728.00;;;16.76;49.32
65614;BME280;52283;49.292;10.572;2023-05-24T12:22:31;96700.38;;;16.88;43.45
65614;BME280;52283;49.292;10.572;2023-05-24T12:24:57;96699.06;;;17.02;42.87
65614;BME280;52283;49.292;10.572;2023-05-24T12:27:26;96701.78;;;16.95;44.54
65614;BME280;52283;49.292;10.572;2023-05-24T12:29:54;96704.63;;;17.08;44.27
65614;BME280;52283;49.292;10.572;2023-05-24T12:32:21;96694.34;;;15.96;43.50
65614;BME280;52283;49.292;10.572;2023-05-24T12:34:48;96714.69;;;16.26;46.67
65614;BME280;52283;49.292;10.572;2023-05-24T12:37:16;96728.38;;;14.87;50.62
65614;BME280;52283;49.292;10.572;2023-05-24T12:39:42;96735.78;;;15.14;51.73
65614;BME280;52283;49.292;10.572;2023-05-24T12:42:09;96714.97;;;16.73;49.44
65614;BME280;52283;49.292;10.572;2023-05-24T12:44:37;96713.72;;;16.88;47.39
65614;BME280;52283;49.292;10.572;2023-05-24T12:47:05;96706.63;;;16.68;46.91
65614;BME280;52283;49.292;10.572;2023-05-24T12:49:32;96711.59;;;17.33;47.49
65614;BME280;52283;49.292;10.572;2023-05-24T12:51:59;96708.09;;;17.41;44.88